createdAt,value
2019-03-20T00:07:56.026Z,25.2
2019-03-20T00:17:55.243Z,24.6
2019-03-20T00:27:54.460Z,24.4
2019-03-20T00:37:53.676Z,24.4
2019-03-20T00:47:52.891Z,24.2
2019-03-20T00:57:52.107Z,24.1
2019-03-20T01:07:51.323Z,24.1
2019-03-20T01:17:50.541Z,24.2
2019-03-20T01:27:49.757Z,23.9
2019-03-20T01:38:02.664Z,23.8
2019-03-20T01:48:01.880Z,24
2019-03-20T01:58:01.094Z,24.2
2019-03-20T02:08:00.311Z,24
2019-03-20T02:17:59.529Z,23.6
2019-03-20T02:27:58.743Z,24.3
2019-03-20T02:37:57.966Z,25.4
2019-03-20T02:47:57.290Z,25.4
2019-03-20T02:57:56.616Z,24.9
2019-03-20T03:07:55.939Z,24.6
2019-03-20T03:17:55.254Z,24.3
2019-03-20T03:27:54.560Z,24.1
2019-03-20T03:37:53.831Z,23.9
2019-03-20T03:47:53.053Z,23.9
2019-03-20T03:57:52.263Z,24.2
2019-03-20T04:07:51.484Z,24.3
2019-03-20T04:17:50.693Z,24.1
2019-03-20T04:27:49.926Z,23.6
2019-03-20T04:37:49.129Z,24.8
2019-03-20T04:47:48.341Z,25.3
2019-03-20T04:57:47.556Z,24.9
2019-03-20T05:07:46.769Z,24.3
2019-03-20T05:17:45.985Z,22.4
2019-03-20T05:27:45.197Z,24.1
2019-03-20T05:37:44.413Z,25.4
2019-03-20T05:47:43.631Z,25.8
2019-03-20T05:57:42.844Z,25.4
2019-03-20T06:07:42.061Z,25.2
2019-03-20T06:17:41.279Z,24.9
2019-03-20T06:27:40.497Z,24.9
2019-03-20T06:37:39.717Z,24.8
2019-03-20T06:47:38.932Z,24.8
2019-03-20T06:57:38.145Z,24.8
2019-03-20T07:07:43.812Z,24.2
2019-03-20T07:17:36.587Z,24.5
2019-03-20T07:27:35.795Z,24.8
2019-03-20T07:37:35.012Z,24.8
2019-03-20T07:47:34.228Z,24.9
2019-03-20T07:57:33.445Z,25.6
2019-03-20T08:07:32.660Z,25.9
2019-03-20T08:17:32.831Z,26
2019-03-20T08:27:32.045Z,25.8
2019-03-20T08:37:31.262Z,25.5
2019-03-20T08:47:30.491Z,25.6
2019-03-20T08:57:29.708Z,25.6
2019-03-20T09:07:28.917Z,25.7
2019-03-20T09:17:28.129Z,26
2019-03-20T09:27:27.347Z,26.2
2019-03-20T09:37:26.562Z,26.3
2019-03-20T09:47:25.780Z,26.8
2019-03-20T09:57:25.002Z,27.1
2019-03-20T10:07:24.212Z,27.2
2019-03-20T10:17:23.433Z,27.3
2019-03-20T10:27:22.648Z,27.3
2019-03-20T10:37:21.861Z,27.2
2019-03-20T10:47:21.081Z,27.1
2019-03-20T10:57:20.301Z,27
2019-03-20T11:07:19.588Z,26.9
2019-03-20T11:17:18.741Z,26.8
2019-03-20T11:27:17.952Z,26.7
2019-03-20T11:37:17.162Z,26.7
2019-03-20T11:47:16.376Z,26.7
2019-03-20T11:57:15.591Z,26.7
2019-03-20T12:07:14.807Z,26.6
2019-03-20T12:17:14.024Z,26.5
2019-03-20T12:27:15.254Z,26.4
2019-03-20T12:37:12.453Z,26.7
2019-03-20T12:47:11.669Z,26.6
2019-03-20T12:57:10.888Z,26.7
2019-03-20T13:07:10.104Z,26.6
2019-03-20T13:17:09.313Z,26.6
2019-03-20T13:27:08.527Z,26.7
2019-03-20T13:37:07.742Z,26.6
2019-03-20T13:47:08.208Z,26.6
2019-03-20T13:57:06.170Z,26.7
2019-03-20T14:07:05.385Z,26.7
2019-03-20T14:17:04.603Z,26.8
2019-03-20T14:27:03.813Z,26.8
2019-03-20T14:37:03.026Z,26.8
2019-03-20T14:47:02.247Z,26.7
2019-03-20T14:57:01.453Z,26.6
2019-03-20T15:07:00.668Z,26.1
2019-03-20T15:16:59.880Z,25.7
2019-03-20T15:26:59.095Z,25.8
2019-03-20T15:36:58.314Z,25.8
2019-03-20T15:46:57.526Z,25.6
2019-03-20T15:56:56.744Z,25.4
2019-03-20T16:06:55.959Z,25.1
2019-03-20T16:16:55.179Z,25
2019-03-20T16:26:55.409Z,25
2019-03-20T16:36:53.607Z,25.2
2019-03-20T16:46:52.824Z,24.9
2019-03-20T16:56:52.039Z,25.1
2019-03-20T17:06:51.255Z,25.1
2019-03-20T17:16:50.474Z,25
2019-03-20T17:26:49.686Z,24.8
2019-03-20T17:36:48.902Z,24.4
2019-03-20T17:46:48.119Z,24.4
2019-03-20T17:56:47.334Z,24.3
2019-03-20T18:06:46.558Z,24.4
2019-03-20T18:16:45.767Z,24.3
2019-03-20T18:26:44.985Z,24.3
2019-03-20T18:36:44.205Z,24.5
2019-03-20T18:46:43.442Z,24.6
2019-03-20T18:56:42.633Z,24.6
2019-03-20T19:06:41.852Z,24.6
2019-03-20T19:16:41.087Z,24.6
2019-03-20T19:26:40.346Z,24.5
2019-03-20T19:36:39.512Z,24.5
2019-03-20T19:46:38.734Z,24.5
2019-03-20T19:56:37.949Z,24.5
2019-03-20T20:06:37.168Z,24.4
2019-03-20T20:15:14.171Z,24.3
2019-03-20T20:25:13.391Z,24.3
2019-03-20T20:35:12.608Z,24.3
2019-03-20T20:45:11.832Z,24.3
2019-03-20T20:55:11.046Z,24.3
2019-03-20T21:00:03.488Z,24.3
2019-03-20T21:10:02.706Z,24.3
2019-03-20T21:20:01.922Z,24.3
2019-03-20T21:30:01.140Z,24.3
2019-03-20T21:40:00.478Z,24.1
2019-03-20T21:49:59.575Z,24.3
2019-03-20T21:59:58.800Z,24.3
2019-03-20T22:09:58.123Z,24.1
2019-03-20T22:19:57.441Z,24.3
2019-03-20T22:29:56.760Z,24.3
2019-03-20T22:34:58.805Z,24.2
2019-03-20T22:44:58.021Z,24.1
2019-03-20T22:54:57.237Z,24.3
2019-03-20T23:04:56.454Z,24.3
2019-03-20T23:14:55.672Z,24.2
2019-03-20T23:24:54.887Z,24.3
2019-03-20T23:34:54.123Z,24.4
2019-03-20T23:44:53.444Z,24.3
2019-03-20T23:54:52.763Z,24.1
